This is the latest recevied weather packets stored in our database for station/object K7AEL. If no packets are shown the sender has not sent any weather packets the latest 1 day(s).
| Time | Temp. | Humidity | Pressure | Rain* | Wind** | Luminosity | Snow |
|---|---|---|---|---|---|---|---|
| 1836274790 | 28.33° C | 54% | 1014.7 hPa | 0 mm | 0 m/s | 0 W/m² | - |
| 1836274489 | 28.89° C | 54% | 1014.4 hPa | 0 mm | 0 m/s | 0 W/m² | - |
| 1836274342 | 28.33° C | 54% | 1014.5 hPa | 0 mm | 0 m/s | 0 W/m² | - |
| 1836274186 | 28.89° C | 54% | 1014.4 hPa | 0 mm | 0 m/s | 0 W/m² | - |
| 1836273880 | 28.89° C | 52% | 1014.3 hPa | 0 mm | 0 m/s | 0 W/m² | - |
| 1778051364 | 15.56° C | 47% | 1015.5 hPa | 0 mm | 0 m/s | 0 W/m² | - |
| 1778051061 | 15.56° C | 47% | 1015.6 hPa | 0 mm | 0 m/s | 0 W/m² | - |
| 1778050758 | 15.56° C | 46% | 1015.5 hPa | 0 mm | 0 m/s | 0 W/m² | - |
| 1778050456 | 16.11° C | 46% | 1015.5 hPa | 0 mm | 0 m/s | 0 W/m² | - |
| 1778050152 | 16.11° C | 45% | 1015.5 hPa | 0 mm | 0 m/s | 0 W/m² | - |
| 1778049848 | 16.11° C | 44% | 1015.4 hPa | 0 mm | 0 m/s | 0 W/m² | - |
| 1778049545 | 16.11° C | 44% | 1015.5 hPa | 0 mm | 0 m/s | 0 W/m² | - |
| 1778049243 | 16.67° C | 45% | 1015.4 hPa | 0 mm | 0 m/s | 0 W/m² | - |
| 1778048941 | 16.67° C | 44% | 1015.3 hPa | 0 mm | 0 m/s | 0 W/m² | - |
| 1778048639 | 16.67° C | 43% | 1015.4 hPa | 0 mm | 0 m/s | 0 W/m² | - |
| 1778048334 | 17.22° C | 43% | 1015.3 hPa | 0 mm | 0 m/s | 0 W/m² | - |
| 1778048031 | 17.22° C | 42% | 1015.2 hPa | 0 mm | 0 m/s | 0 W/m² | - |
| 1778047729 | 17.22° C | 42% | 1015.3 hPa | 0 mm | 0 m/s | 0 W/m² | - |
| 1778047427 | 17.78° C | 41% | 1015.3 hPa | 0 mm | 0 m/s | 0 W/m² | - |
| 1778047123 | 17.78° C | 40% | 1015.2 hPa | 0 mm | 0.45 m/s, 222° | 0 W/m² | - |
| 1778046821 | 17.78° C | 39% | 1015.1 hPa | 0 mm | 0.45 m/s, 228° | 0 W/m² | - |
| 1778046518 | 18.33° C | 39% | 1015.4 hPa | 0 mm | 0.45 m/s, 229° | 0 W/m² | - |
| 1778046214 | 18.89° C | 38% | 1015.4 hPa | 0 mm | 0.89 m/s, 139° | 0 W/m² | - |
| 1778045911 | 18.89° C | 39% | 1015.2 hPa | 0 mm | 0.89 m/s, 200° | 0 W/m² | - |
| 1778045610 | 18.33° C | 44% | 1015.3 hPa | 0 mm | 1.34 m/s, 269° | 0 W/m² | - |
* Rain latest hour (hover to see other rain measurements)
** Current wind speed in m/s (hover to see current wind gust speed)